Observations for Trim Patrick St
| Time | AQI | Temp °C | Hum % | Pres Pa | CO μg/m³ | H₂S μg/m³ | NO μg/m³ | NO₂ μg/m³ | O₃ μg/m³ | SO₂ μg/m³ | PM1 μg/m³ | PM2.5 μg/m³ | PM10 μg/m³ |
|---|---|---|---|---|---|---|---|---|---|---|---|---|---|
| Thursday 27 August 2026 | |||||||||||||
| 22:46 | 3 | 17.8 | 86 | 38,460 | 0.13 | 2.82 | 1.47 | 13.38 | 39.56 | 0.1 | 20.86 | 29.52 | 32.47 |
| 22:45 | 3 | 17.8 | 86 | 38,460 | 0.12 | 2.92 | 1.46 | 14.19 | 31.13 | 0 | 20.86 | 28.83 | 31.72 |
| 22:44 | 3 | 17.8 | 86 | 38,460 | 0.12 | 3.47 | 1.21 | 15.46 | 36.72 | 0 | 20.86 | 28.15 | 30.96 |
| 22:43 | 3 | 17.8 | 86 | 38,460 | 0.13 | 2.24 | 1.35 | 13.25 | 38.85 | 0.05 | 20.86 | 28.16 | 30.07 |
| 22:42 | 3 | 17.8 | 86 | 38,460 | 0.13 | 3.23 | 1.73 | 16.33 | 32.66 | 0 | 19.14 | 26.79 | 29.46 |
| 22:41 | 3 | 17.8 | 86 | 38,460 | 0.12 | 2.5 | 2.44 | 12.67 | 36.14 | 0.13 | 20 | 26.1 | 28.71 |
| 22:39 | 3 | 17.8 | 86 | 38,460 | 0.13 | 2.4 | 1.85 | 12.85 | 39.23 | 0.07 | 18.29 | 26.1 | 28.71 |
| 22:38 | 3 | 17.8 | 86 | 38,460 | 0.16 | 3.29 | 1.44 | 13.69 | 33.63 | 0.44 | 18.29 | 25.41 | 27.95 |
| 22:37 | 3 | 17.8 | 86 | 38,460 | 0.12 | 2.4 | 1.18 | 13.25 | 35.63 | 0 | 19.14 | 26.1 | 28.71 |
| 22:35 | 3 | 17.8 | 86 | 38,460 | 0.11 | 2.21 | 1.02 | 13.03 | 38.02 | 0 | 20 | 28.17 | 28.8 |
| 22:34 | 3 | 17.8 | 86 | 38,460 | 0.13 | 2.61 | 0.97 | 13.13 | 35.82 | 0.16 | 20 | 26.8 | 29.48 |
| 22:33 | 3 | 17.8 | 86 | 38,460 | 0.12 | 2 | 0.93 | 13.03 | 36.51 | 0.1 | 20.86 | 28.86 | 31.75 |
| 22:32 | 3 | 17.8 | 86 | 38,460 | 0.12 | 2.16 | 1.04 | 13.13 | 36.69 | 0.07 | 19.14 | 27.49 | 27.51 |
| 22:31 | 3 | 17.8 | 86 | 38,460 | 0.13 | 2.11 | 1.08 | 12.92 | 38.58 | 0 | 20 | 26.8 | 29.48 |
| 22:28 | 3 | 17.8 | 86 | 38,460 | 0.12 | 2.61 | 1.14 | 13.22 | 37.41 | 0 | 19.14 | 26.11 | 28.72 |
| 22:27 | 3 | 17.8 | 86 | 38,460 | 0.12 | 2.42 | 1.21 | 13.22 | 38.93 | 0 | 19.14 | 26.8 | 27.51 |
| 22:26 | 3 | 17.8 | 86 | 38,460 | 0.12 | 2.47 | 1.1 | 13.01 | 37.7 | 0.1 | 19.14 | 27.49 | 30.24 |
| 22:25 | 3 | 17.8 | 86 | 38,460 | 0.12 | 2.47 | 1.1 | 13.32 | 35.63 | 0.02 | 19.14 | 27.49 | 27.51 |
| 22:24 | 3 | 17.8 | 86 | 38,460 | 0.12 | 2.37 | 1.18 | 13.2 | 37.01 | 0 | 20 | 28.19 | 31.01 |
| 22:23 | 3 | 17.8 | 86 | 38,460 | 0.12 | 2.74 | 1.12 | 13.94 | 37.65 | 0 | 20 | 26.13 | 28.74 |